createdAt,value
2023-01-12T00:02:22.122Z,8.43
2023-01-12T00:05:47.335Z,8.41
2023-01-12T00:09:12.578Z,8.38
2023-01-12T00:12:37.852Z,8.34
2023-01-12T00:16:03.112Z,8.3
2023-01-12T00:19:28.346Z,8.24
2023-01-12T00:22:53.581Z,8.2
2023-01-12T00:26:18.826Z,8.19
2023-01-12T00:29:44.208Z,8.24
2023-01-12T00:33:09.340Z,8.29
2023-01-12T00:36:34.629Z,8.32
2023-01-12T00:40:02.336Z,8.39
2023-01-12T00:43:25.157Z,8.41
2023-01-12T00:46:50.443Z,8.43
2023-01-12T00:50:17.375Z,8.41
2023-01-12T00:53:40.887Z,8.39
2023-01-12T00:57:06.150Z,8.32
2023-01-12T01:00:31.387Z,8.27
2023-01-12T01:03:56.690Z,8.26
2023-01-12T01:07:22.014Z,8.29
2023-01-12T01:10:47.167Z,8.32
2023-01-12T01:14:12.390Z,8.34
2023-01-12T01:17:37.669Z,8.41
2023-01-12T01:21:02.959Z,8.42
2023-01-12T01:24:28.172Z,8.44
2023-01-12T01:27:53.435Z,8.41
2023-01-12T01:31:18.725Z,8.38
2023-01-12T01:34:43.941Z,8.37
2023-01-12T01:38:09.183Z,8.32
2023-01-12T01:41:34.430Z,8.29
2023-01-12T01:44:59.653Z,8.3
2023-01-12T01:48:24.911Z,8.36
2023-01-12T01:51:50.152Z,8.35
2023-01-12T01:55:15.439Z,8.35
2023-01-12T01:58:40.672Z,8.33
2023-01-12T02:02:06.104Z,8.32
2023-01-12T02:05:31.187Z,8.37
2023-01-12T02:08:56.448Z,8.37
2023-01-12T02:12:21.730Z,8.36
2023-01-12T02:15:47.099Z,8.36
2023-01-12T02:19:12.217Z,8.33
2023-01-12T02:22:37.473Z,8.32
2023-01-12T02:26:02.720Z,8.24
2023-01-12T02:29:27.987Z,8.22
2023-01-12T02:32:53.252Z,8.17
2023-01-12T02:36:18.500Z,8.17
2023-01-12T02:39:43.737Z,8.17
2023-01-12T02:43:08.986Z,8.13
2023-01-12T02:46:34.261Z,8.13
2023-01-12T02:49:59.487Z,8.11
2023-01-12T02:53:24.711Z,8.13
2023-01-12T02:56:49.976Z,8.12
2023-01-12T03:00:15.180Z,8.12
2023-01-12T03:03:40.497Z,8.12
2023-01-12T03:07:05.724Z,8.13
2023-01-12T03:10:30.981Z,8.17
2023-01-12T03:13:56.218Z,8.13
2023-01-12T03:17:21.480Z,8.11
2023-01-12T03:20:46.732Z,8.1
2023-01-12T03:24:11.977Z,8.13
2023-01-12T03:27:37.240Z,8.18
2023-01-12T03:31:02.534Z,8.23
2023-01-12T03:34:27.738Z,8.21
2023-01-12T03:37:53.025Z,8.18
2023-01-12T03:41:18.255Z,8.14
2023-01-12T03:44:43.512Z,8.11
2023-01-12T03:48:08.785Z,8.07
2023-01-12T03:51:34.059Z,8.04
2023-01-12T03:54:59.311Z,8.04
2023-01-12T03:58:24.547Z,8.03
2023-01-12T04:01:49.902Z,8
2023-01-12T04:05:15.040Z,8
2023-01-12T04:08:40.270Z,7.97
2023-01-12T04:12:05.563Z,7.94
2023-01-12T04:15:30.794Z,7.93
2023-01-12T04:18:56.072Z,7.94
2023-01-12T04:22:21.346Z,7.93
2023-01-12T04:25:46.567Z,7.94
2023-01-12T04:29:11.847Z,7.95
2023-01-12T04:32:37.078Z,7.97
2023-01-12T04:36:02.425Z,7.97
2023-01-12T04:39:27.703Z,7.97
2023-01-12T04:42:52.983Z,7.97
2023-01-12T04:46:18.326Z,8.02
2023-01-12T04:49:43.437Z,8.08
2023-01-12T04:53:08.730Z,8.09
2023-01-12T04:56:33.911Z,8.1
2023-01-12T04:59:59.145Z,8.07
2023-01-12T05:03:24.416Z,8.02
2023-01-12T05:06:49.636Z,7.99
2023-01-12T05:10:14.963Z,8.02
2023-01-12T05:13:40.193Z,8.05
2023-01-12T05:17:05.444Z,8.09
2023-01-12T05:20:30.703Z,8.06
2023-01-12T05:23:55.951Z,8.05
2023-01-12T05:27:21.183Z,8.03
2023-01-12T05:30:46.422Z,7.99
2023-01-12T05:34:11.654Z,7.98
2023-01-12T05:37:36.934Z,7.99
2023-01-12T05:41:02.150Z,7.98
2023-01-12T05:44:27.407Z,7.98
2023-01-12T05:47:52.658Z,8
2023-01-12T05:51:17.945Z,8.05
2023-01-12T05:54:43.179Z,8.19
2023-01-12T05:58:08.416Z,8.42
2023-01-12T06:01:33.688Z,8.61
2023-01-12T06:04:58.966Z,8.61
2023-01-12T06:08:24.256Z,8.48
2023-01-12T06:11:49.553Z,8.38
2023-01-12T06:15:14.861Z,8.33
2023-01-12T06:18:40.123Z,8.27
2023-01-12T06:22:05.351Z,8.25
2023-01-12T06:25:30.612Z,8.21
2023-01-12T06:28:55.985Z,8.17
2023-01-12T06:32:21.181Z,8.14
2023-01-12T06:35:46.443Z,8.11
2023-01-12T06:39:11.743Z,8.13
2023-01-12T06:42:37.055Z,8.17
2023-01-12T06:46:02.432Z,8.16
2023-01-12T06:49:27.615Z,8.17
2023-01-12T06:52:52.893Z,8.18
2023-01-12T06:56:18.156Z,8.19
2023-01-12T06:59:43.456Z,8.24
2023-01-12T07:03:08.722Z,8.25
2023-01-12T07:06:33.975Z,8.25
2023-01-12T07:09:59.203Z,8.29
2023-01-12T07:13:24.473Z,8.33
2023-01-12T07:16:49.792Z,8.34
2023-01-12T07:20:15.134Z,8.32
2023-01-12T07:23:40.421Z,8.3
2023-01-12T07:27:05.672Z,8.31
2023-01-12T07:30:30.971Z,8.33
2023-01-12T07:33:56.211Z,8.36
2023-01-12T07:37:21.500Z,8.4
2023-01-12T07:40:46.698Z,8.41
2023-01-12T07:44:11.953Z,8.42
2023-01-12T07:47:37.181Z,8.42
2023-01-12T07:51:02.517Z,8.5
2023-01-12T07:54:27.920Z,8.74
2023-01-12T07:57:53.188Z,8.93
2023-01-12T08:01:18.568Z,9.04
2023-01-12T08:04:43.803Z,9.12
2023-01-12T08:08:09.089Z,9.19
2023-01-12T08:11:34.540Z,9.24
2023-01-12T08:14:59.710Z,9.23
2023-01-12T08:18:25.007Z,9.32
2023-01-12T08:21:50.379Z,9.38
2023-01-12T08:25:15.652Z,9.39
2023-01-12T08:28:40.971Z,9.43
2023-01-12T08:35:31.537Z,9.44
2023-01-12T08:38:56.881Z,9.46
2023-01-12T08:42:22.153Z,9.45
2023-01-12T08:45:47.536Z,9.52
2023-01-12T08:49:16.755Z,9.51
2023-01-12T08:52:38.073Z,9.56
2023-01-12T08:56:03.358Z,9.53
2023-01-12T08:59:28.637Z,9.43
2023-01-12T09:02:53.935Z,9.38
2023-01-12T09:06:19.177Z,9.34
2023-01-12T09:09:44.448Z,9.35
2023-01-12T09:13:09.753Z,9.37
2023-01-12T09:16:35.042Z,9.39
2023-01-12T09:20:00.355Z,9.44
2023-01-12T09:23:25.591Z,9.44
2023-01-12T09:26:50.879Z,9.42
2023-01-12T09:30:16.166Z,9.4
2023-01-12T09:33:41.419Z,9.32
2023-01-12T09:37:06.734Z,9.1
2023-01-12T09:40:31.971Z,8.93
2023-01-12T09:43:57.257Z,8.8
2023-01-12T09:47:22.580Z,8.72
2023-01-12T09:50:47.852Z,8.67
2023-01-12T09:54:13.163Z,8.64
2023-01-12T09:57:38.447Z,8.6
2023-01-12T10:01:03.729Z,8.58
2023-01-12T10:04:29.044Z,8.56
2023-01-12T10:07:54.381Z,8.55
2023-01-12T10:11:19.661Z,8.54
2023-01-12T10:14:44.898Z,8.56
2023-01-12T10:18:10.253Z,8.59
2023-01-12T10:21:35.566Z,8.6
2023-01-12T10:25:00.972Z,8.58
2023-01-12T10:28:26.349Z,8.58
2023-01-12T10:31:51.672Z,8.62
2023-01-12T10:35:16.961Z,8.65
2023-01-12T10:38:42.379Z,8.68
2023-01-12T10:42:07.688Z,8.72
2023-01-12T10:45:33.101Z,8.75
2023-01-12T10:48:58.339Z,8.75
2023-01-12T10:52:23.631Z,8.76
2023-01-12T10:55:49.280Z,8.76
2023-01-12T10:59:14.535Z,8.83
2023-01-12T11:02:39.846Z,8.92
2023-01-12T11:06:05.936Z,8.97
2023-01-12T11:09:31.274Z,8.99
2023-01-12T11:12:56.723Z,9.01
2023-01-12T11:16:22.103Z,9.02
2023-01-12T11:19:47.469Z,9.06
2023-01-12T11:23:12.815Z,9.12
2023-01-12T11:26:38.328Z,9.12
2023-01-12T11:30:04.646Z,9.13
2023-01-12T11:33:30.352Z,9.14
2023-01-12T11:37:05.033Z,9.19
2023-01-12T11:40:30.337Z,9.24
2023-01-12T11:43:56.079Z,9.27
2023-01-12T11:47:21.203Z,9.31
2023-01-12T11:50:46.676Z,9.31
2023-01-12T11:54:12.097Z,9.27
2023-01-12T11:57:37.476Z,9.27
2023-01-12T12:01:02.972Z,9.26
2023-01-12T12:04:28.381Z,9.29
2023-01-12T12:07:53.813Z,9.27
2023-01-12T12:11:19.142Z,9.31
2023-01-12T12:14:44.396Z,9.37
2023-01-12T12:18:09.700Z,9.46
2023-01-12T12:21:35.018Z,9.52
2023-01-12T12:25:00.357Z,9.52
2023-01-12T12:28:25.751Z,9.51
2023-01-12T12:31:51.022Z,9.5
2023-01-12T12:35:16.410Z,9.48
2023-01-12T12:38:41.762Z,9.45
2023-01-12T12:42:07.057Z,9.45
2023-01-12T12:45:32.470Z,9.45
2023-01-12T12:48:57.789Z,9.46
2023-01-12T12:52:23.062Z,9.47
2023-01-12T12:55:48.416Z,9.53
2023-01-12T12:59:13.729Z,9.53
2023-01-12T13:02:39.062Z,9.54
2023-01-12T13:06:04.282Z,9.55
2023-01-12T13:09:29.584Z,9.53
2023-01-12T13:12:54.929Z,9.52
2023-01-12T13:16:20.384Z,9.49
2023-01-12T13:19:45.520Z,9.5
2023-01-12T13:23:10.816Z,9.48
2023-01-12T13:26:36.237Z,9.47
2023-01-12T13:30:01.562Z,9.48
2023-01-12T13:33:27.076Z,9.5
2023-01-12T13:36:52.384Z,9.5
2023-01-12T13:40:17.809Z,9.52
2023-01-12T13:43:43.191Z,9.51
2023-01-12T13:47:08.688Z,9.51
2023-01-12T13:50:34.037Z,9.52
2023-01-12T13:53:59.442Z,9.52
2023-01-12T13:57:24.643Z,9.51
2023-01-12T14:00:50.003Z,9.51
2023-01-12T14:04:16.359Z,9.51
2023-01-12T14:07:40.541Z,9.5
2023-01-12T14:11:05.835Z,9.47
2023-01-12T14:14:31.169Z,9.46
2023-01-12T14:17:56.491Z,9.46
2023-01-12T14:21:21.772Z,9.46
2023-01-12T14:24:47.223Z,9.43
2023-01-12T14:28:12.680Z,9.42
2023-01-12T15:04:24.455Z,7.26
2023-01-12T15:07:49.786Z,8.26
2023-01-12T15:11:15.211Z,8.51
2023-01-12T15:14:40.537Z,8.71
2023-01-12T15:18:05.919Z,8.88
2023-01-12T15:21:31.200Z,9.02
2023-01-12T15:24:56.556Z,9.12
2023-01-12T15:28:21.886Z,9.17
2023-01-12T15:31:47.351Z,9.23
2023-01-12T15:35:12.502Z,9.29
2023-01-12T15:38:37.828Z,9.34
2023-01-12T15:42:03.044Z,9.37
2023-01-12T15:45:28.349Z,9.42
2023-01-12T15:48:53.556Z,9.43
2023-01-12T15:52:18.839Z,9.43
2023-01-12T15:55:44.132Z,9.42
2023-01-12T15:59:09.373Z,9.42
2023-01-12T16:02:34.660Z,9.43
2023-01-12T16:05:59.951Z,9.43
2023-01-12T16:09:25.226Z,9.4
2023-01-12T16:12:50.497Z,9.43
2023-01-12T16:16:15.821Z,9.48
2023-01-12T16:19:41.296Z,9.5
2023-01-12T16:23:06.470Z,9.48
2023-01-12T16:26:32.763Z,9.49
2023-01-12T16:29:58.250Z,9.47
2023-01-12T16:33:23.998Z,9.47
2023-01-12T16:36:49.179Z,9.5
2023-01-12T16:40:14.468Z,9.51
2023-01-12T16:43:39.736Z,9.49
2023-01-12T16:47:05.017Z,9.48
2023-01-12T16:50:30.243Z,9.49
2023-01-12T16:53:55.487Z,9.48
2023-01-12T16:57:20.753Z,9.48
2023-01-12T17:00:46.128Z,9.49
2023-01-12T17:04:11.416Z,9.66
2023-01-12T17:07:36.835Z,9.79
2023-01-12T17:11:02.852Z,9.81
2023-01-12T17:14:28.339Z,9.77
2023-01-12T17:17:53.704Z,9.73
2023-01-12T17:21:19.161Z,9.69
2023-01-12T17:24:44.639Z,9.67
2023-01-12T17:28:09.984Z,9.66
2023-01-12T17:31:35.433Z,9.65
2023-01-12T17:35:00.943Z,9.7
2023-01-12T17:38:26.532Z,9.69
2023-01-12T17:41:51.875Z,9.68
2023-01-12T17:52:10.445Z,9.54
2023-01-12T17:55:39.959Z,9.51
2023-01-12T17:59:01.863Z,9.54
2023-01-12T18:02:27.402Z,9.57
2023-01-12T18:06:02.755Z,9.59
2023-01-12T18:09:18.620Z,9.59
2023-01-12T18:12:44.224Z,9.64
2023-01-12T18:16:09.775Z,9.7
2023-01-12T18:19:35.467Z,9.72
2023-01-12T18:23:00.995Z,9.7
2023-01-12T18:26:27.564Z,9.7
2023-01-12T18:29:53.111Z,9.68
2023-01-12T18:33:18.828Z,9.73
2023-01-12T18:36:44.553Z,9.74
2023-01-12T18:40:10.117Z,9.75
2023-01-12T18:43:35.666Z,9.77
2023-01-12T18:47:01.265Z,9.77
2023-01-12T18:50:26.838Z,9.78
2023-01-12T18:53:52.462Z,9.79
2023-01-12T18:57:18.206Z,9.82
2023-01-12T19:00:43.816Z,9.82
2023-01-12T19:04:09.482Z,9.85
2023-01-12T19:07:35.035Z,9.89
2023-01-12T19:11:02.700Z,9.88
2023-01-12T19:14:26.817Z,9.87
2023-01-12T19:17:52.436Z,9.86
2023-01-12T19:21:18.247Z,9.82
2023-01-12T19:24:43.771Z,9.78
2023-01-12T19:28:10.075Z,9.77
2023-01-12T19:31:35.701Z,9.76
2023-01-12T19:35:10.072Z,9.74
2023-01-12T19:38:26.821Z,9.74
2023-01-12T19:41:52.377Z,9.74
2023-01-12T19:45:18.020Z,9.75
2023-01-12T19:48:46.274Z,9.76
2023-01-12T19:52:11.846Z,9.78
2023-01-12T19:55:37.408Z,9.79
2023-01-12T19:59:02.882Z,9.79
2023-01-12T20:02:28.666Z,9.8
2023-01-12T20:05:54.117Z,9.8
2023-01-12T20:09:19.586Z,9.81
2023-01-12T20:12:45.111Z,9.84
2023-01-12T20:16:10.698Z,9.82
2023-01-12T20:19:36.114Z,9.81
2023-01-12T20:23:01.610Z,9.79
2023-01-12T20:26:27.575Z,9.81
2023-01-12T20:29:53.098Z,9.82
2023-01-12T20:33:18.599Z,9.82
2023-01-12T20:36:45.486Z,9.83
2023-01-12T20:40:09.520Z,9.83
2023-01-12T20:43:35.048Z,9.84
2023-01-12T20:47:00.654Z,9.88
2023-01-12T20:50:26.140Z,9.92
2023-01-12T20:53:51.627Z,9.9
2023-01-12T20:57:16.995Z,9.84
2023-01-12T21:00:42.338Z,9.79
2023-01-12T21:04:07.624Z,9.76
2023-01-12T21:07:32.934Z,9.74
2023-01-12T21:10:58.194Z,9.7
2023-01-12T21:14:23.451Z,9.69
2023-01-12T21:17:48.768Z,9.71
2023-01-12T21:21:14.150Z,9.75
2023-01-12T21:24:39.473Z,9.78
2023-01-12T21:28:04.817Z,9.77
2023-01-12T21:31:30.144Z,9.79
2023-01-12T21:34:55.447Z,9.77
2023-01-12T21:38:20.763Z,9.75
2023-01-12T21:41:45.972Z,9.75
2023-01-12T21:45:11.392Z,9.74
2023-01-12T21:48:36.692Z,9.74
2023-01-12T21:52:02.036Z,9.75
2023-01-12T21:55:27.402Z,9.74
2023-01-12T21:58:52.651Z,9.75
2023-01-12T22:02:17.925Z,9.74
2023-01-12T22:05:43.328Z,9.71
2023-01-12T22:09:08.671Z,9.69
2023-01-12T22:12:33.983Z,9.7
2023-01-12T22:15:59.244Z,9.74
2023-01-12T22:19:24.556Z,9.75
2023-01-12T22:22:49.862Z,9.76
2023-01-12T22:26:15.164Z,9.78
2023-01-12T22:29:40.469Z,9.76
2023-01-12T22:33:05.760Z,9.74
2023-01-12T22:36:32.800Z,9.74
2023-01-12T22:39:57.050Z,9.74
2023-01-12T22:43:22.341Z,9.72
2023-01-12T22:46:47.629Z,9.69
2023-01-12T22:50:12.903Z,9.69
2023-01-12T22:53:38.205Z,9.67
2023-01-12T22:57:03.595Z,9.65
2023-01-12T23:00:29.024Z,9.65
2023-01-12T23:03:54.843Z,9.64
2023-01-12T23:07:20.578Z,9.68
2023-01-12T23:10:46.353Z,9.7
2023-01-12T23:14:12.140Z,9.68
2023-01-12T23:17:37.949Z,9.69
2023-01-12T23:21:03.781Z,9.65
2023-01-12T23:24:29.548Z,9.65
2023-01-12T23:27:55.351Z,9.65
2023-01-12T23:31:21.250Z,9.65
2023-01-12T23:34:46.964Z,9.64
2023-01-12T23:38:12.766Z,9.65
2023-01-12T23:41:38.571Z,9.67
2023-01-12T23:45:04.335Z,9.68
2023-01-12T23:48:30.128Z,9.67
2023-01-12T23:51:55.923Z,9.67
2023-01-12T23:55:21.747Z,9.68
2023-01-12T23:58:47.577Z,9.68
